createdAt,value
2023-03-16T00:00:14.815Z,98073.75
2023-03-16T00:01:18.278Z,98073.06
2023-03-16T00:02:21.463Z,98081.13
2023-03-16T00:03:24.895Z,98079.66
2023-03-16T00:04:28.230Z,98077.19
2023-03-16T00:05:32.460Z,98083.41
2023-03-16T00:06:37.399Z,98084.94
2023-03-16T00:07:42.389Z,98087.87
2023-03-16T00:08:45.625Z,98088.56
2023-03-16T00:09:48.668Z,98082.91
2023-03-16T00:10:54.685Z,98090.75
2023-03-16T00:11:59.187Z,98089.81
2023-03-16T00:13:03.028Z,98090.66
2023-03-16T00:14:06.038Z,98097.00
2023-03-16T00:15:09.354Z,98098.41
2023-03-16T00:16:17.411Z,98094.19
2023-03-16T00:17:21.798Z,98087.63
2023-03-16T00:18:27.618Z,98094.81
2023-03-16T00:19:30.528Z,98089.16
2023-03-16T00:20:34.399Z,98090.66
2023-03-16T00:21:37.450Z,98094.19
2023-03-16T00:22:42.223Z,98093.03
2023-03-16T00:23:45.405Z,98091.72
2023-03-16T00:24:49.020Z,98096.47
2023-03-16T00:25:54.437Z,98093.38
2023-03-16T00:26:57.733Z,98095.13
2023-03-16T00:28:04.025Z,98096.59
2023-03-16T00:29:07.173Z,98107.59
2023-03-16T00:30:11.981Z,98109.25
2023-03-16T00:31:15.569Z,98097.38
2023-03-16T00:32:20.784Z,98104.09
2023-03-16T00:33:23.860Z,98105.59
2023-03-16T00:34:30.408Z,98099.91
2023-03-16T00:35:35.168Z,98095.34
2023-03-16T00:36:38.766Z,98099.16
2023-03-16T00:37:43.934Z,98096.94
2023-03-16T00:38:48.623Z,98094.66
2023-03-16T00:39:56.584Z,98104.31
2023-03-16T00:40:59.897Z,98108.47
2023-03-16T00:42:03.491Z,98100.88
2023-03-16T00:43:06.704Z,98100.44
2023-03-16T00:44:10.075Z,98092.41
2023-03-16T00:45:13.357Z,98102.44
2023-03-16T00:46:18.401Z,98101.31
2023-03-16T00:47:21.958Z,98091.97
2023-03-16T00:48:25.321Z,98097.88
2023-03-16T00:49:29.014Z,98105.84
2023-03-16T00:50:32.304Z,98096.41
2023-03-16T00:51:35.785Z,98092.66
2023-03-16T00:52:39.075Z,98095.66
2023-03-16T00:53:44.092Z,98097.47
2023-03-16T00:54:47.852Z,98095.13
2023-03-16T00:55:50.952Z,98094.28
2023-03-16T00:56:54.245Z,98100.25
2023-03-16T00:57:57.400Z,98099.34
2023-03-16T00:59:05.931Z,98103.78
2023-03-16T01:00:13.248Z,98100.88
2023-03-16T01:01:19.823Z,98098.53
2023-03-16T01:02:24.922Z,98100.78
2023-03-16T01:03:28.361Z,98101.00
2023-03-16T01:04:32.734Z,98102.53
2023-03-16T01:05:40.833Z,98106.94
2023-03-16T01:06:44.893Z,98113.25
2023-03-16T01:07:48.205Z,98104.78
2023-03-16T01:08:52.854Z,98098.25
2023-03-16T01:09:56.169Z,98097.91
2023-03-16T01:11:10.776Z,98107.28
2023-03-16T01:12:16.543Z,98103.78
2023-03-16T01:13:19.548Z,98109.50
2023-03-16T01:14:23.062Z,98108.09
2023-03-16T01:15:26.690Z,98109.97
2023-03-16T01:16:30.359Z,98107.19
2023-03-16T01:17:35.503Z,98114.25
2023-03-16T01:18:39.061Z,98104.34
2023-03-16T01:19:42.676Z,98107.06
2023-03-16T01:20:51.016Z,98099.84
2023-03-16T01:21:54.274Z,98102.31
2023-03-16T01:22:57.620Z,98112.97
2023-03-16T01:24:00.991Z,98109.19
2023-03-16T01:25:04.413Z,98108.41
2023-03-16T01:26:08.690Z,98105.03
2023-03-16T01:27:13.330Z,98111.56
2023-03-16T01:28:16.388Z,98112.91
2023-03-16T01:29:19.602Z,98113.56
2023-03-16T01:30:22.706Z,98113.19
2023-03-16T01:31:25.980Z,98111.06
2023-03-16T01:32:29.102Z,98109.06
2023-03-16T01:33:33.980Z,98111.53
2023-03-16T01:34:37.110Z,98112.00
2023-03-16T01:35:40.255Z,98120.28
2023-03-16T01:36:44.645Z,98117.28
2023-03-16T01:37:47.969Z,98114.12
2023-03-16T01:38:51.527Z,98117.47
2023-03-16T01:39:54.689Z,98117.03
2023-03-16T01:40:57.990Z,98114.81
2023-03-16T01:42:01.103Z,98120.88
2023-03-16T01:43:05.361Z,98126.00
2023-03-16T01:44:14.572Z,98117.72
2023-03-16T01:45:56.639Z,98125.78
2023-03-16T01:46:59.801Z,98119.06
2023-03-16T01:48:03.401Z,98114.81
2023-03-16T01:49:20.764Z,98117.16
2023-03-16T01:50:23.987Z,98127.78
2023-03-16T01:51:56.639Z,98117.16
2023-03-16T01:52:59.863Z,98119.06
2023-03-16T01:54:15.746Z,98133.16
2023-03-16T01:55:19.046Z,98127.56
2023-03-16T01:56:35.010Z,98123.84
2023-03-16T01:57:44.236Z,98119.50
2023-03-16T01:58:47.833Z,98137.31
2023-03-16T02:00:19.226Z,98135.63
2023-03-16T02:01:22.485Z,98139.56
2023-03-16T02:02:32.339Z,98136.19
2023-03-16T02:03:35.579Z,98138.53
2023-03-16T02:05:02.417Z,98143.47
2023-03-16T02:06:20.932Z,98138.22
2023-03-16T02:07:28.090Z,98143.69
2023-03-16T02:08:32.788Z,98140.13
2023-03-16T02:09:39.994Z,98140.00
2023-03-16T02:10:45.357Z,98140.13
2023-03-16T02:11:49.302Z,98139.88
2023-03-16T02:12:53.748Z,98146.25
2023-03-16T02:14:03.083Z,98147.03
2023-03-16T02:15:06.976Z,98153.44
2023-03-16T02:16:10.485Z,98148.37
2023-03-16T02:17:15.523Z,98151.31
2023-03-16T02:18:19.720Z,98146.38
2023-03-16T02:19:53.307Z,98149.72
2023-03-16T02:21:16.623Z,98149.06
2023-03-16T02:22:20.683Z,98156.56
2023-03-16T02:23:25.731Z,98145.72
2023-03-16T02:24:29.116Z,98149.72
2023-03-16T02:25:48.909Z,98154.78
2023-03-16T02:27:05.139Z,98155.22
2023-03-16T02:28:29.607Z,98155.56
2023-03-16T02:29:57.270Z,98165.94
2023-03-16T02:31:02.471Z,98161.59
2023-03-16T02:32:06.495Z,98158.03
2023-03-16T02:33:10.428Z,98162.59
2023-03-16T02:34:16.086Z,98160.91
2023-03-16T02:35:20.506Z,98166.38
2023-03-16T02:36:23.542Z,98165.75
2023-03-16T02:37:27.732Z,98166.31
2023-03-16T02:38:31.918Z,98158.13
2023-03-16T02:39:35.731Z,98169.09
2023-03-16T02:40:39.253Z,98163.28
2023-03-16T02:41:42.620Z,98163.94
2023-03-16T02:42:45.691Z,98164.41
2023-03-16T02:43:53.853Z,98169.09
2023-03-16T02:44:59.698Z,98168.62
2023-03-16T02:46:05.533Z,98165.94
2023-03-16T02:47:17.170Z,98169.53
2023-03-16T02:48:33.714Z,98171.22
2023-03-16T02:49:44.221Z,98175.12
2023-03-16T02:50:50.348Z,98179.37
2023-03-16T02:51:54.071Z,98179.37
2023-03-16T02:52:57.184Z,98186.00
2023-03-16T02:54:00.321Z,98182.53
2023-03-16T02:55:04.923Z,98181.97
2023-03-16T02:56:08.300Z,98182.09
2023-03-16T02:57:11.561Z,98186.56
2023-03-16T02:58:16.026Z,98179.63
2023-03-16T02:59:19.231Z,98186.34
2023-03-16T03:00:22.708Z,98185.13
2023-03-16T03:01:26.145Z,98193.50
2023-03-16T03:02:29.343Z,98182.09
2023-03-16T03:03:34.823Z,98189.25
2023-03-16T03:04:37.936Z,98193.97
2023-03-16T03:05:41.059Z,98191.69
2023-03-16T03:06:44.678Z,98199.06
2023-03-16T03:07:48.094Z,98195.84
2023-03-16T03:08:51.787Z,98203.91
2023-03-16T03:09:55.770Z,98196.97
2023-03-16T03:10:59.421Z,98202.87
2023-03-16T03:12:02.668Z,98203.44
2023-03-16T03:13:07.765Z,98208.03
2023-03-16T03:14:11.255Z,98213.72
2023-03-16T03:15:15.027Z,98214.31
2023-03-16T03:16:18.126Z,98208.72
2023-03-16T03:17:21.325Z,98208.63
2023-03-16T03:18:34.932Z,98214.06
2023-03-16T03:19:38.316Z,98216.78
2023-03-16T03:20:41.959Z,98223.00
2023-03-16T03:21:45.370Z,98225.25
2023-03-16T03:22:50.290Z,98224.38
2023-03-16T03:23:54.126Z,98220.13
2023-03-16T03:24:57.220Z,98230.66
2023-03-16T03:26:00.531Z,98229.53
2023-03-16T03:27:06.400Z,98224.41
2023-03-16T03:28:09.816Z,98235.47
2023-03-16T03:29:12.957Z,98235.91
2023-03-16T03:30:21.799Z,98227.97
2023-03-16T03:31:25.095Z,98233.69
2023-03-16T03:32:28.370Z,98242.28
2023-03-16T03:33:33.957Z,98241.50
2023-03-16T03:34:37.788Z,98241.63
2023-03-16T03:35:42.505Z,98238.00
2023-03-16T03:36:45.564Z,98247.94
2023-03-16T03:37:48.660Z,98240.34
2023-03-16T03:38:51.844Z,98245.63
2023-03-16T03:39:55.180Z,98243.28
2023-03-16T03:41:01.075Z,98245.09
2023-03-16T03:42:04.580Z,98246.66
2023-03-16T03:43:07.512Z,98251.75
2023-03-16T03:44:11.153Z,98251.03
2023-03-16T03:45:15.161Z,98249.19
2023-03-16T03:46:18.427Z,98254.72
2023-03-16T03:47:21.578Z,98244.75
2023-03-16T03:48:25.218Z,98265.22
2023-03-16T03:49:28.342Z,98251.78
2023-03-16T03:50:31.542Z,98255.34
2023-03-16T03:51:34.829Z,98253.47
2023-03-16T03:52:38.151Z,98267.72
2023-03-16T03:53:41.507Z,98256.69
2023-03-16T03:54:44.645Z,98262.41
2023-03-16T03:55:50.127Z,98267.97
2023-03-16T03:56:53.387Z,98256.84
2023-03-16T03:57:56.452Z,98262.78
2023-03-16T03:58:59.948Z,98257.94
2023-03-16T04:00:03.501Z,98262.66
2023-03-16T04:01:07.404Z,98261.03
2023-03-16T04:02:11.609Z,98263.03
2023-03-16T04:03:15.334Z,98262.44
2023-03-16T04:04:18.463Z,98269.72
2023-03-16T04:05:22.237Z,98269.50
2023-03-16T04:06:25.440Z,98265.94
2023-03-16T04:07:28.467Z,98272.34
2023-03-16T04:08:31.670Z,98271.87
2023-03-16T04:09:35.038Z,98277.34
2023-03-16T04:10:38.156Z,98274.56
2023-03-16T04:11:41.354Z,98266.03
2023-03-16T04:12:45.109Z,98273.22
2023-03-16T04:13:48.518Z,98269.97
2023-03-16T04:14:52.004Z,98270.31
2023-03-16T04:15:59.588Z,98271.75
2023-03-16T04:17:05.032Z,98274.47
2023-03-16T04:18:08.564Z,98268.22
2023-03-16T04:19:11.889Z,98274.44
2023-03-16T04:20:19.570Z,98280.38
2023-03-16T04:21:23.674Z,98277.59
2023-03-16T04:22:26.950Z,98275.41
2023-03-16T04:23:35.124Z,98274.50
2023-03-16T04:24:38.204Z,98278.19
2023-03-16T04:25:41.410Z,98280.47
2023-03-16T04:26:45.651Z,98281.62
2023-03-16T04:27:49.300Z,98284.69
2023-03-16T04:28:53.111Z,98282.06
2023-03-16T04:30:00.012Z,98281.78
2023-03-16T04:31:07.623Z,98278.97
2023-03-16T04:32:11.710Z,98282.75
2023-03-16T04:33:15.305Z,98288.91
2023-03-16T04:34:18.401Z,98289.69
2023-03-16T04:35:22.454Z,98292.84
2023-03-16T04:36:25.763Z,98290.31
2023-03-16T04:37:28.997Z,98291.78
2023-03-16T04:38:36.761Z,98288.25
2023-03-16T04:39:40.038Z,98296.69
2023-03-16T04:40:43.359Z,98295.56
2023-03-16T04:41:46.716Z,98292.66
2023-03-16T04:42:49.848Z,98298.50
2023-03-16T04:43:53.002Z,98292.56
2023-03-16T04:44:56.344Z,98300.03
2023-03-16T04:45:59.555Z,98302.47
2023-03-16T04:47:02.823Z,98299.03
2023-03-16T04:48:06.298Z,98297.03
2023-03-16T04:49:10.070Z,98302.19
2023-03-16T04:50:13.715Z,98303.31
2023-03-16T04:51:16.858Z,98307.25
2023-03-16T04:52:20.161Z,98302.41
2023-03-16T04:53:23.371Z,98304.62
2023-03-16T04:54:26.474Z,98303.88
2023-03-16T04:55:29.634Z,98309.44
2023-03-16T04:56:34.227Z,98305.41
2023-03-16T04:57:37.403Z,98314.06
2023-03-16T04:58:40.945Z,98306.53
2023-03-16T04:59:43.988Z,98316.91
2023-03-16T05:00:48.424Z,98315.34
2023-03-16T05:01:51.503Z,98313.03
2023-03-16T05:02:54.747Z,98316.31
2023-03-16T05:03:59.674Z,98317.13
2023-03-16T05:05:04.834Z,98313.81
2023-03-16T05:06:08.112Z,98317.31
2023-03-16T05:07:11.817Z,98320.53
2023-03-16T05:08:14.909Z,98311.47
2023-03-16T05:09:18.045Z,98319.34
2023-03-16T05:10:22.296Z,98329.63
2023-03-16T05:11:25.437Z,98324.63
2023-03-16T05:12:28.569Z,98328.25
2023-03-16T05:13:31.464Z,98333.97
2023-03-16T05:14:36.524Z,98326.84
2023-03-16T05:15:39.700Z,98328.62
2023-03-16T05:16:43.227Z,98333.06
2023-03-16T05:17:46.959Z,98336.03
2023-03-16T05:18:49.992Z,98338.41
2023-03-16T05:19:53.076Z,98328.12
2023-03-16T05:20:58.237Z,98330.47
2023-03-16T05:22:01.308Z,98344.41
2023-03-16T05:23:04.367Z,98334.97
2023-03-16T05:24:08.612Z,98340.03
2023-03-16T05:25:15.489Z,98334.28
2023-03-16T05:26:19.153Z,98336.97
2023-03-16T05:27:22.178Z,98342.34
2023-03-16T05:28:25.220Z,98340.13
2023-03-16T05:29:28.121Z,98339.25
2023-03-16T05:30:31.705Z,98338.75
2023-03-16T05:31:35.236Z,98340.13
2023-03-16T05:32:39.078Z,98343.81
2023-03-16T05:33:42.144Z,98340.97
2023-03-16T05:34:45.109Z,98340.69
2023-03-16T05:35:48.361Z,98340.97
2023-03-16T05:36:51.775Z,98343.03
2023-03-16T05:37:54.818Z,98339.87
2023-03-16T05:38:58.561Z,98339.25
2023-03-16T05:40:01.943Z,98345.34
2023-03-16T05:41:06.109Z,98330.59
2023-03-16T05:42:09.915Z,98340.19
2023-03-16T05:43:13.641Z,98335.31
2023-03-16T05:44:16.836Z,98337.88
2023-03-16T05:45:20.003Z,98347.81
2023-03-16T05:46:23.190Z,98338.91
2023-03-16T05:47:26.354Z,98342.47
2023-03-16T05:48:29.256Z,98339.19
2023-03-16T05:49:32.278Z,98349.91
2023-03-16T05:50:35.332Z,98340.25
2023-03-16T05:51:38.486Z,98344.53
2023-03-16T05:52:41.793Z,98351.69
2023-03-16T05:53:47.265Z,98352.50
2023-03-16T05:54:50.174Z,98354.69
2023-03-16T05:55:53.461Z,98353.47
2023-03-16T05:56:56.863Z,98353.19
2023-03-16T05:57:59.991Z,98362.19
2023-03-16T05:59:02.951Z,98359.75
2023-03-16T06:00:13.507Z,98361.31
2023-03-16T06:01:16.577Z,98361.22
2023-03-16T06:02:19.634Z,98367.72
2023-03-16T06:03:23.205Z,98370.69
2023-03-16T06:04:26.332Z,98370.44
2023-03-16T06:05:29.919Z,98375.94
2023-03-16T06:06:32.907Z,98369.81
2023-03-16T06:07:36.183Z,98370.16
2023-03-16T06:08:40.081Z,98368.25
2023-03-16T06:09:43.061Z,98375.78
2023-03-16T06:10:49.516Z,98373.88
2023-03-16T06:11:52.493Z,98375.91
2023-03-16T06:12:55.625Z,98383.66
2023-03-16T06:13:58.519Z,98381.44
2023-03-16T06:15:02.800Z,98379.75
2023-03-16T06:16:06.817Z,98378.72
2023-03-16T06:17:09.886Z,98378.44
2023-03-16T06:18:12.860Z,98378.91
2023-03-16T06:19:15.870Z,98381.56
2023-03-16T06:20:19.399Z,98379.47
2023-03-16T06:21:23.784Z,98384.53
2023-03-16T06:22:27.004Z,98380.72
2023-03-16T06:23:30.207Z,98387.78
2023-03-16T06:24:33.163Z,98398.31
2023-03-16T06:25:37.744Z,98395.22
2023-03-16T06:26:42.037Z,98395.69
2023-03-16T06:27:45.213Z,98400.47
2023-03-16T06:28:49.281Z,98391.28
2023-03-16T06:29:52.257Z,98401.94
2023-03-16T06:30:57.513Z,98407.09
2023-03-16T06:32:00.420Z,98402.38
2023-03-16T06:33:03.407Z,98405.63
2023-03-16T06:34:06.485Z,98411.34
2023-03-16T06:35:10.458Z,98405.81
2023-03-16T06:36:13.861Z,98409.06
2023-03-16T06:37:16.803Z,98414.44
2023-03-16T06:38:20.472Z,98414.06
2023-03-16T06:39:23.602Z,98406.41
2023-03-16T06:40:27.626Z,98407.44
2023-03-16T06:41:30.812Z,98407.75
2023-03-16T06:42:33.972Z,98411.22
2023-03-16T06:43:37.105Z,98412.19
2023-03-16T06:44:40.201Z,98416.03
2023-03-16T06:45:43.807Z,98411.22
2023-03-16T06:46:47.077Z,98419.28
2023-03-16T06:47:49.889Z,98418.13
2023-03-16T06:48:53.221Z,98420.50
2023-03-16T06:49:56.264Z,98422.06
2023-03-16T06:50:59.421Z,98422.47
2023-03-16T06:52:03.872Z,98425.16
2023-03-16T06:53:06.997Z,98426.22
2023-03-16T06:54:09.939Z,98425.28
2023-03-16T06:55:14.653Z,98428.19
2023-03-16T06:56:17.748Z,98431.63
2023-03-16T06:57:20.768Z,98428.41
2023-03-16T06:58:23.782Z,98438.53
2023-03-16T06:59:27.250Z,98438.75
2023-03-16T07:00:32.016Z,98431.19
2023-03-16T07:01:35.249Z,98434.41
2023-03-16T07:02:43.947Z,98436.34
2023-03-16T07:03:47.386Z,98438.09
2023-03-16T07:04:50.921Z,98443.53
2023-03-16T07:05:54.401Z,98437.81
2023-03-16T07:06:57.467Z,98439.97
2023-03-16T07:08:00.581Z,98441.16
2023-03-16T07:09:04.229Z,98441.53
2023-03-16T07:10:07.737Z,98449.75
2023-03-16T07:11:10.764Z,98441.41
2023-03-16T07:12:14.199Z,98453.78
2023-03-16T07:13:17.716Z,98446.28
2023-03-16T07:14:21.452Z,98451.84
2023-03-16T07:15:27.123Z,98453.59
2023-03-16T07:16:30.278Z,98455.03
2023-03-16T07:17:33.364Z,98451.19
2023-03-16T07:18:38.300Z,98452.41
2023-03-16T07:19:41.383Z,98454.94
2023-03-16T07:20:44.679Z,98463.03
2023-03-16T07:21:47.779Z,98465.09
2023-03-16T07:22:50.846Z,98466.22
2023-03-16T07:23:55.978Z,98464.69
2023-03-16T07:24:59.447Z,98474.59
2023-03-16T07:26:03.883Z,98472.69
2023-03-16T07:27:06.913Z,98470.13
2023-03-16T07:28:09.886Z,98472.78
2023-03-16T07:29:14.741Z,98468.03
2023-03-16T07:30:18.071Z,98473.81
2023-03-16T07:31:21.235Z,98474.16
2023-03-16T07:32:24.767Z,98477.53
2023-03-16T07:33:27.685Z,98478.13
2023-03-16T07:34:30.974Z,98474.94
2023-03-16T07:35:33.831Z,98476.22
2023-03-16T07:36:37.033Z,98473.97
2023-03-16T07:37:40.202Z,98477.19
2023-03-16T07:38:43.478Z,98478.50
2023-03-16T07:39:47.077Z,98476.09
2023-03-16T07:40:52.564Z,98469.09
2023-03-16T07:41:55.680Z,98476.13
2023-03-16T07:42:58.704Z,98472.25
2023-03-16T07:44:01.738Z,98480.38
2023-03-16T07:45:06.243Z,98480.12
2023-03-16T07:46:09.363Z,98481.47
2023-03-16T07:47:15.308Z,98486.88
2023-03-16T07:48:19.209Z,98486.13
2023-03-16T07:49:22.937Z,98485.84
2023-03-16T07:50:26.286Z,98483.50
2023-03-16T07:51:29.581Z,98483.03
2023-03-16T07:52:32.576Z,98479.94
2023-03-16T07:53:36.076Z,98475.75
2023-03-16T07:54:38.931Z,98485.41
2023-03-16T07:55:43.190Z,98486.16
2023-03-16T07:56:49.544Z,98477.84
2023-03-16T07:57:52.996Z,98484.37
2023-03-16T07:58:56.058Z,98481.75
2023-03-16T07:59:59.579Z,98490.34
2023-03-16T08:01:02.514Z,98491.87
2023-03-16T08:02:06.179Z,98483.19
2023-03-16T08:03:09.673Z,98475.81
2023-03-16T08:04:12.868Z,98485.31
2023-03-16T08:05:16.454Z,98488.16
2023-03-16T08:06:20.012Z,98484.72
2023-03-16T08:07:23.205Z,98490.41
2023-03-16T08:08:26.335Z,98491.66
2023-03-16T08:09:29.386Z,98480.59
2023-03-16T08:10:33.985Z,98492.00
2023-03-16T08:11:37.088Z,98488.28
2023-03-16T08:12:40.177Z,98491.87
2023-03-16T08:13:44.217Z,98489.34
2023-03-16T08:14:47.300Z,98499.69
2023-03-16T08:15:58.986Z,98487.56
2023-03-16T08:17:03.080Z,98493.03
2023-03-16T08:18:07.629Z,98497.63
2023-03-16T08:19:12.197Z,98497.53
2023-03-16T08:20:15.830Z,98501.06
2023-03-16T08:21:20.460Z,98505.13
2023-03-16T08:22:23.987Z,98506.94
2023-03-16T08:23:27.125Z,98509.59
2023-03-16T08:24:31.335Z,98507.16
2023-03-16T08:25:34.748Z,98510.66
2023-03-16T08:26:39.585Z,98503.00
2023-03-16T08:27:43.326Z,98504.09
2023-03-16T08:28:47.899Z,98504.00
2023-03-16T08:29:53.883Z,98508.94
2023-03-16T08:30:58.802Z,98507.81
2023-03-16T08:32:02.203Z,98512.25
2023-03-16T08:33:05.806Z,98516.25
2023-03-16T08:34:09.378Z,98511.41
2023-03-16T08:35:16.878Z,98511.16
2023-03-16T08:36:21.379Z,98514.87
2023-03-16T08:37:24.415Z,98508.91
2023-03-16T08:38:27.498Z,98508.34
2023-03-16T08:39:31.352Z,98512.19
2023-03-16T08:40:35.191Z,98507.72
2023-03-16T08:41:38.317Z,98511.59
2023-03-16T08:42:41.758Z,98510.31
2023-03-16T08:43:45.026Z,98513.28
2023-03-16T08:44:48.655Z,98506.25
2023-03-16T08:45:52.677Z,98504.47
2023-03-16T08:46:55.516Z,98500.91
2023-03-16T08:47:58.980Z,98505.00
2023-03-16T08:49:03.023Z,98505.09
2023-03-16T08:50:07.553Z,98508.19
2023-03-16T08:51:11.838Z,98513.31
2023-03-16T08:52:16.183Z,98514.34
2023-03-16T08:53:19.181Z,98503.94
2023-03-16T08:54:22.699Z,98510.19
2023-03-16T08:55:26.781Z,98505.31
2023-03-16T08:56:30.723Z,98513.94
2023-03-16T08:57:34.264Z,98515.56
2023-03-16T08:58:37.739Z,98507.22
2023-03-16T08:59:40.806Z,98507.34
2023-03-16T09:00:46.438Z,98519.91
2023-03-16T09:01:49.916Z,98512.66
2023-03-16T09:02:53.485Z,98516.75
2023-03-16T09:03:56.874Z,98513.22
2023-03-16T09:05:00.129Z,98513.03
2023-03-16T09:06:05.161Z,98510.19
2023-03-16T09:07:09.910Z,98518.03
2023-03-16T09:08:13.127Z,98513.72
2023-03-16T09:09:16.641Z,98529.44
2023-03-16T09:10:20.366Z,98523.22
2023-03-16T09:11:23.907Z,98520.25
2023-03-16T09:12:27.433Z,98515.47
2023-03-16T09:13:32.057Z,98520.81
2023-03-16T09:14:37.488Z,98525.94
2023-03-16T09:15:40.689Z,98522.31
2023-03-16T09:16:44.600Z,98521.41
2023-03-16T09:17:48.629Z,98522.16
2023-03-16T09:18:52.832Z,98521.63
2023-03-16T09:20:05.415Z,98529.81
2023-03-16T09:21:14.718Z,98533.53
2023-03-16T09:22:18.694Z,98537.84
2023-03-16T09:23:21.696Z,98532.63
2023-03-16T09:24:24.898Z,98533.84
2023-03-16T09:25:28.400Z,98535.53
2023-03-16T09:26:33.309Z,98543.50
2023-03-16T09:27:37.067Z,98526.06
2023-03-16T09:28:42.437Z,98535.94
2023-03-16T09:29:45.613Z,98533.31
2023-03-16T09:30:51.045Z,98533.34
2023-03-16T09:31:54.299Z,98536.38
2023-03-16T09:32:57.927Z,98538.41
2023-03-16T09:34:01.026Z,98541.72
2023-03-16T09:35:06.468Z,98540.47
2023-03-16T09:36:12.008Z,98541.19
2023-03-16T09:37:16.889Z,98546.19
2023-03-16T09:38:20.372Z,98548.81
2023-03-16T09:39:23.737Z,98546.66
2023-03-16T09:40:30.842Z,98547.69
2023-03-16T09:41:48.925Z,98537.06
2023-03-16T09:43:15.872Z,98547.13
2023-03-16T09:44:34.165Z,98545.53
2023-03-16T09:45:58.661Z,98550.75
2023-03-16T09:47:05.198Z,98547.81
2023-03-16T09:48:11.049Z,98548.59
2023-03-16T09:49:20.098Z,98539.09
2023-03-16T09:50:38.173Z,98544.69
2023-03-16T09:51:56.950Z,98540.78
2023-03-16T09:53:17.310Z,98543.34
2023-03-16T09:54:54.112Z,98549.31
2023-03-16T09:56:05.012Z,98540.00
2023-03-16T09:57:35.012Z,98539.44
2023-03-16T09:58:38.636Z,98545.44
2023-03-16T09:59:42.432Z,98546.91
2023-03-16T10:01:10.211Z,98541.94
2023-03-16T10:02:56.297Z,98534.81
2023-03-16T10:04:15.861Z,98528.13
2023-03-16T10:05:25.367Z,98545.59
2023-03-16T10:06:29.162Z,98531.56
2023-03-16T10:07:43.922Z,98544.63
2023-03-16T10:09:04.648Z,98537.00
2023-03-16T10:10:44.889Z,98540.78
2023-03-16T10:11:54.227Z,98541.97
2023-03-16T10:13:01.820Z,98543.34
2023-03-16T10:14:33.168Z,98542.50
2023-03-16T10:15:39.737Z,98538.06
2023-03-16T10:16:55.454Z,98544.47
2023-03-16T10:18:07.507Z,98544.53
2023-03-16T10:19:17.249Z,98550.75
2023-03-16T10:20:23.417Z,98549.44
2023-03-16T10:21:26.657Z,98554.69
2023-03-16T10:22:35.144Z,98560.37
2023-03-16T10:23:40.277Z,98557.22
2023-03-16T10:25:16.499Z,98562.72
2023-03-16T10:26:26.656Z,98556.19
2023-03-16T10:27:38.652Z,98554.59
2023-03-16T10:28:43.168Z,98555.19
2023-03-16T10:29:47.469Z,98556.59
2023-03-16T10:30:52.892Z,98559.91
2023-03-16T10:32:02.615Z,98559.28
2023-03-16T10:33:26.848Z,98554.31
2023-03-16T10:34:31.238Z,98551.97
2023-03-16T10:35:51.837Z,98554.00
2023-03-16T10:36:55.493Z,98558.44
2023-03-16T10:37:58.934Z,98558.97
2023-03-16T10:39:08.501Z,98557.88
2023-03-16T10:40:13.474Z,98551.22
2023-03-16T10:41:20.659Z,98548.09
2023-03-16T10:42:25.295Z,98551.25
2023-03-16T10:43:29.989Z,98563.00
2023-03-16T10:44:39.867Z,98552.91
2023-03-16T10:45:43.681Z,98559.91
2023-03-16T10:47:05.021Z,98550.44
2023-03-16T10:48:08.279Z,98549.03
2023-03-16T10:49:36.599Z,98543.44
2023-03-16T10:50:39.885Z,98539.69
2023-03-16T10:51:44.123Z,98547.19
2023-03-16T10:52:49.973Z,98539.88
2023-03-16T10:53:53.345Z,98549.81
2023-03-16T10:55:11.396Z,98538.78
2023-03-16T10:56:25.482Z,98538.91
2023-03-16T10:57:34.083Z,98534.59
2023-03-16T10:58:42.799Z,98539.13
2023-03-16T10:59:50.485Z,98542.81
2023-03-16T11:00:53.844Z,98534.31
2023-03-16T11:02:14.573Z,98533.03
2023-03-16T11:03:39.040Z,98545.00
2023-03-16T11:04:42.213Z,98532.38
2023-03-16T11:05:45.281Z,98543.75
2023-03-16T11:06:57.286Z,98538.47
2023-03-16T11:08:22.109Z,98541.12
2023-03-16T11:09:28.068Z,98544.06
2023-03-16T11:10:40.443Z,98536.63
2023-03-16T11:11:50.154Z,98542.16
2023-03-16T11:12:53.082Z,98539.56
2023-03-16T11:13:59.882Z,98532.31
2023-03-16T11:15:29.359Z,98538.72
2023-03-16T11:16:41.778Z,98535.94
2023-03-16T11:17:49.978Z,98532.69
2023-03-16T11:18:57.812Z,98536.84
2023-03-16T11:20:08.753Z,98530.16
2023-03-16T11:21:23.267Z,98534.38
2023-03-16T11:22:27.973Z,98525.53
2023-03-16T11:23:34.534Z,98522.56
2023-03-16T11:25:09.695Z,98524.06
2023-03-16T11:26:28.085Z,98528.31
2023-03-16T11:27:42.218Z,98526.84
2023-03-16T11:28:50.787Z,98537.72
2023-03-16T11:30:18.834Z,98520.16
2023-03-16T11:31:50.411Z,98531.91
2023-03-16T11:32:54.541Z,98521.97
2023-03-16T11:33:57.831Z,98523.81
2023-03-16T11:35:00.774Z,98517.25
2023-03-16T11:36:36.084Z,98507.22
2023-03-16T11:37:58.159Z,98507.56
2023-03-16T11:39:14.428Z,98518.09
2023-03-16T11:40:26.604Z,98521.94
2023-03-16T11:41:55.833Z,98520.03
2023-03-16T11:43:27.850Z,98526.00
2023-03-16T11:44:44.025Z,98527.38
2023-03-16T11:46:02.108Z,98514.66
2023-03-16T11:47:24.022Z,98514.59
2023-03-16T11:48:53.705Z,98517.16
2023-03-16T11:50:47.372Z,98517.22
2023-03-16T11:52:02.697Z,98517.13
2023-03-16T11:53:23.030Z,98513.31
2023-03-16T11:54:37.737Z,98517.06
2023-03-16T11:56:03.682Z,98518.22
2023-03-16T11:57:31.678Z,98518.25
2023-03-16T11:58:56.225Z,98513.44
2023-03-16T12:00:36.717Z,98504.34
2023-03-16T12:02:00.992Z,98510.66
2023-03-16T12:03:26.156Z,98521.63
2023-03-16T12:04:38.292Z,98513.81
2023-03-16T12:05:57.439Z,98510.94
2023-03-16T12:07:05.307Z,98517.03
2023-03-16T12:08:50.274Z,98512.53
2023-03-16T12:10:19.097Z,98509.47
2023-03-16T12:11:56.686Z,98507.78
2023-03-16T12:13:11.135Z,98505.69
2023-03-16T12:14:17.229Z,98505.28
2023-03-16T12:15:36.334Z,98511.19
2023-03-16T12:16:49.394Z,98502.03
2023-03-16T12:18:01.023Z,98505.44
2023-03-16T12:19:07.566Z,98503.09
2023-03-16T12:21:04.363Z,98506.34
2023-03-16T12:22:33.217Z,98504.91
2023-03-16T12:24:09.292Z,98505.38
2023-03-16T12:25:22.508Z,98502.34
2023-03-16T12:26:30.567Z,98497.84
2023-03-16T12:27:38.007Z,98495.38
2023-03-16T12:28:42.570Z,98493.63
2023-03-16T12:30:25.886Z,98502.56
2023-03-16T12:31:41.891Z,98499.50
2023-03-16T12:33:16.943Z,98508.38
2023-03-16T12:34:32.290Z,98495.97
2023-03-16T12:36:03.013Z,98501.09
2023-03-16T12:37:18.555Z,98503.38
2023-03-16T12:38:21.554Z,98505.03
2023-03-16T12:39:43.960Z,98509.31
2023-03-16T12:41:29.393Z,98499.97
2023-03-16T12:42:53.151Z,98501.94
2023-03-16T12:44:15.413Z,98501.91
2023-03-16T12:45:21.149Z,98503.66
2023-03-16T12:46:53.815Z,98505.53
2023-03-16T12:48:22.613Z,98493.84
2023-03-16T12:49:26.797Z,98513.09
2023-03-16T12:50:30.528Z,98514.44
2023-03-16T12:51:42.502Z,98514.84
2023-03-16T12:52:51.568Z,98519.06
2023-03-16T12:53:55.745Z,98502.94
2023-03-16T12:55:15.624Z,98516.28
2023-03-16T12:56:21.714Z,98517.66
2023-03-16T12:57:27.398Z,98517.00
2023-03-16T12:58:30.728Z,98517.56
2023-03-16T12:59:44.309Z,98508.03
2023-03-16T13:00:57.550Z,98522.09
2023-03-16T13:02:04.259Z,98508.41
2023-03-16T13:03:22.534Z,98506.41
2023-03-16T13:04:35.981Z,98506.69
2023-03-16T13:05:47.984Z,98501.06
2023-03-16T13:07:02.144Z,98502.13
2023-03-16T13:08:12.439Z,98503.59
2023-03-16T13:09:22.247Z,98511.34